Shoreview, Minnesota
Current Conditions -  °F | °C
As of 12:14 AM on Saturday 29 Nov 2014 (Local Time) from KANE Reporting Station
Clear Clear  
Wind Chill: 23°   Ceiling: Unl
Heat Index: 23°   Visibility: 10mi
Dew Point: 19°   Wind: 3mph
Humidity: 86%   Direction: 90°E
Pressure: 29.67"   Gusts: NA
Location:  45.0848°N, 93.136°W
Report Text: KANE 290614Z AUTO 09003KT 10SM CLR M05/M07 A2967 RMK AO2
Loading
Personal Weather Stations






























Interactive Weather Map New forecast layout! Learn more

10-Day Weather Forecast

Advertisements
Track Severe Weather on mobile